Time;durP1;ratioP1;P1;durP2;ratioP2;P2;SDS_P1;SDS_P2;PMS_P1;PMS_P2;Temp;Humidity;BMP_temperature;BMP_pressure;BME280_temperature;BME280_humidity;BME280_pressure;Samples;Min_cycle;Max_cycle;Signal;HPM_P1;HPM_P2
2023/10/02 00:00:39;;;;;;;16.45;6.38;;;19.50;90.80;;;;;;5055377;28;20048;-81
2023/10/02 00:03:05;;;;;;;15.15;6.40;;;19.50;90.70;;;;;;5055678;28;20025;-81
2023/10/02 00:08:34;;;;;;;14.43;6.60;;;19.40;90.70;;;;;;5039281;28;20030;-81
2023/10/02 00:11:36;;;;;;;14.57;5.80;;;19.40;90.80;;;;;;5077076;28;20032;-81
2023/10/02 00:14:23;;;;;;;13.30;6.25;;;19.40;90.90;;;;;;5076861;28;20017;-81
2023/10/02 00:17:03;;;;;;;14.40;5.97;;;19.40;90.90;;;;;;5076879;28;20025;-81
2023/10/02 00:19:47;;;;;;;15.50;6.47;;;19.40;90.90;;;;;;5076888;28;20017;-81
2023/10/02 00:22:41;;;;;;;16.88;6.45;;;19.40;91.20;;;;;;5076813;28;20452;-81
2023/10/02 00:25:16;;;;;;;14.57;6.72;;;19.30;90.80;;;;;;5045720;28;20067;-81
2023/10/02 00:27:46;;;;;;;16.67;6.45;;;19.30;91.00;;;;;;5058856;28;20044;-81
2023/10/02 00:30:13;;;;;;;15.15;6.15;;;19.20;91.10;;;;;;5076465;28;20047;-81
2023/10/02 00:32:41;;;;;;;14.90;6.00;;;19.20;91.10;;;;;;5076461;28;20059;-80
2023/10/02 00:35:10;;;;;;;16.95;6.82;;;19.10;91.30;;;;;;5076378;28;20071;-80
2023/10/02 00:37:47;;;;;;;14.45;6.28;;;19.10;91.40;;;;;;5058701;28;20048;-81
2023/10/02 00:40:22;;;;;;;17.63;6.70;;;19.00;91.40;;;;;;5058713;28;20017;-81
2023/10/02 00:42:55;;;;;;;14.82;5.95;;;19.10;91.50;;;;;;5076304;28;20072;-80
2023/10/02 00:45:21;;;;;;;18.67;6.22;;;19.00;91.50;;;;;;5076387;28;20021;-81
2023/10/02 00:47:49;;;;;;;14.98;6.22;;;19.00;91.50;;;;;;5076179;28;20025;-80
2023/10/02 00:50:23;;;;;;;17.73;6.45;;;18.90;91.60;;;;;;5058790;28;20028;-81
2023/10/02 00:53:03;;;;;;;15.90;6.47;;;18.90;91.70;;;;;;5058426;28;20400;-80
2023/10/02 00:55:32;;;;;;;16.30;6.47;;;18.90;91.80;;;;;;5058740;28;20025;-81
2023/10/02 00:57:59;;;;;;;17.15;6.18;;;18.90;92.00;;;;;;5058232;28;20025;-81
2023/10/02 01:00:36;;;;;;;14.95;6.47;;;18.90;91.90;;;;;;5075948;28;20028;-81
2023/10/02 01:03:08;;;;;;;14.32;5.97;;;18.90;91.80;;;;;;5075950;28;20483;-81
2023/10/02 01:05:42;;;;;;;19.33;7.30;;;19.00;91.70;;;;;;5058196;28;20053;-81
2023/10/02 01:11:04;;;;;;;16.50;5.75;;;18.90;91.70;;;;;;5075901;28;20043;-81
2023/10/02 01:13:32;;;;;;;17.63;7.05;;;18.80;91.80;;;;;;5058136;28;20048;-81
2023/10/02 01:16:00;;;;;;;15.90;6.60;;;18.80;91.80;;;;;;5058072;28;20025;-81
2023/10/02 01:18:29;;;;;;;16.83;6.20;;;18.80;91.80;;;;;;5057833;28;20029;-81
2023/10/02 01:21:00;;;;;;;18.17;7.32;;;18.70;92.00;;;;;;5075147;28;20025;-81
2023/10/02 01:23:27;;;;;;;16.13;7.05;;;18.70;92.00;;;;;;5075645;28;20052;-81
2023/10/02 01:25:58;;;;;;;15.57;6.75;;;18.70;92.10;;;;;;5075469;28;20021;-81
2023/10/02 01:28:54;;;;;;;18.23;6.93;;;18.70;92.10;;;;;;5075448;28;20048;-82
2023/10/02 01:31:41;;;;;;;16.27;6.88;;;18.80;92.00;;;;;;5075564;28;20029;-80
2023/10/02 01:34:07;;;;;;;16.65;7.00;;;18.70;92.00;;;;;;5075287;28;20500;-81
2023/10/02 01:36:33;;;;;;;17.70;7.30;;;18.60;92.00;;;;;;5057488;28;20097;-81
2023/10/02 01:39:15;;;;;;;16.65;6.60;;;18.60;92.10;;;;;;5075183;28;20036;-81
2023/10/02 01:41:41;;;;;;;;;;;18.50;92.40;;;;;;5058000;28;20142;-81
2023/10/02 01:44:11;;;;;;;18.20;6.30;;;18.50;92.40;;;;;;5075144;28;19905;-81
2023/10/02 01:46:49;;;;;;;14.40;5.75;;;18.50;92.50;;;;;;5075092;28;20055;-81
2023/10/02 01:49:24;;;;;;;18.33;6.45;;;18.60;92.40;;;;;;5075135;28;20025;-81
2023/10/02 01:51:55;;;;;;;14.05;5.72;;;18.70;92.60;;;;;;5058871;28;20064;-81
2023/10/02 01:54:29;;;;;;;14.52;6.43;;;18.80;92.00;;;;;;5074999;28;20025;-81
2023/10/02 01:56:56;;;;;;;15.73;6.20;;;18.80;91.80;;;;;;5041288;28;20384;-81
2023/10/02 01:59:24;;;;;;;16.33;6.25;;;18.80;91.60;;;;;;5074818;28;20043;-81
2023/10/02 02:01:56;;;;;;;14.40;5.85;;;18.90;91.50;;;;;;5057512;28;20025;-80
2023/10/02 02:04:28;;;;;;;;;;;18.90;91.40;;;;;;5075045;28;20044;-80
2023/10/02 02:06:56;;;;;;;14.00;6.17;;;18.90;91.20;;;;;;5074756;28;19901;-81
2023/10/02 02:09:30;;;;;;;14.27;5.95;;;18.80;91.20;;;;;;5074649;28;20255;-80
2023/10/02 02:12:06;;;;;;;17.25;6.85;;;18.80;91.20;;;;;;5074681;28;20072;-81
2023/10/02 02:14:51;;;;;;;14.43;5.78;;;18.90;91.20;;;;;;5056902;28;20025;-81
2023/10/02 02:17:24;;;;;;;15.88;6.00;;;18.80;91.00;;;;;;5056782;28;20029;-81
2023/10/02 02:19:50;;;;;;;15.13;6.50;;;18.80;91.00;;;;;;5074490;28;20029;-81
2023/10/02 02:22:26;;;;;;;14.18;6.07;;;18.80;91.10;;;;;;5074386;28;20056;-81
2023/10/02 02:24:59;;;;;;;18.75;6.32;;;18.70;91.10;;;;;;5056706;28;20021;-81
2023/10/02 02:27:25;;;;;;;16.20;6.05;;;18.70;91.00;;;;;;5074291;28;20033;-80
2023/10/02 02:29:55;;;;;;;14.60;5.93;;;18.70;91.00;;;;;;5074241;28;20021;-81
2023/10/02 02:32:36;;;;;;;12.75;5.55;;;18.70;91.00;;;;;;5073410;28;20033;-81
2023/10/02 02:35:03;;;;;;;13.68;5.30;;;18.70;90.90;;;;;;5058743;28;20025;-80
2023/10/02 02:37:32;;;;;;;16.40;6.32;;;18.70;90.90;;;;;;5074017;28;20021;-81
2023/10/02 02:40:22;;;;;;;12.35;5.45;;;18.70;90.90;;;;;;5074197;28;20021;-81
2023/10/02 02:42:45;;;;;;;16.35;6.22;;;18.70;90.90;;;;;;5059184;28;20033;-80
2023/10/02 02:45:26;;;;;;;14.45;5.82;;;18.70;90.90;;;;;;5073952;28;20120;-81
2023/10/02 02:47:54;;;;;;;15.98;5.63;;;18.70;90.90;;;;;;5073947;28;20021;-81
2023/10/02 02:50:28;;;;;;;15.90;6.32;;;18.70;90.90;;;;;;5074002;28;20025;-81
2023/10/02 02:55:38;;;;;;;15.88;6.10;;;18.70;91.00;;;;;;5059061;28;20064;-81
2023/10/02 02:58:06;;;;;;;15.48;6.38;;;18.70;91.00;;;;;;5073626;28;20037;-81
2023/10/02 03:00:35;;;;;;;15.77;6.38;;;18.70;91.10;;;;;;5056443;28;20028;-81
2023/10/02 03:03:02;;;;;;;14.07;6.53;;;18.70;91.10;;;;;;5056035;28;20025;-81
2023/10/02 03:05:43;;;;;;;15.18;6.45;;;18.60;91.10;;;;;;5039144;28;20049;-80
2023/10/02 03:08:11;;;;;;;14.30;6.38;;;18.60;91.10;;;;;;5055938;28;20032;-81
2023/10/02 03:10:39;;;;;;;17.13;7.03;;;18.60;91.20;;;;;;5055864;28;20029;-81
2023/10/02 03:13:08;;;;;;;14.75;6.63;;;18.60;91.20;;;;;;5073505;28;20024;-80
2023/10/02 03:15:46;;;;;;;14.55;6.30;;;18.60;91.30;;;;;;5039698;28;20025;-81
2023/10/02 03:18:30;;;;;;;17.70;6.28;;;18.60;91.40;;;;;;5057533;28;20084;-80
2023/10/02 03:23:38;;;;;;;14.82;6.07;;;18.60;91.50;;;;;;5073466;28;20029;-80
2023/10/02 03:26:21;;;;;;;19.40;6.72;;;18.50;91.70;;;;;;5073323;28;20081;-80
2023/10/02 03:28:47;;;;;;;17.63;6.63;;;18.40;91.80;;;;;;5058338;28;20044;-81
2023/10/02 03:31:17;;;;;;;20.15;6.85;;;18.40;91.90;;;;;;5073227;28;20043;-81
2023/10/02 03:33:42;;;;;;;16.23;6.65;;;18.40;91.80;;;;;;5055466;28;20032;-80
2023/10/02 03:36:11;;;;;;;16.58;6.35;;;18.40;91.90;;;;;;5073118;28;20021;-80
2023/10/02 03:38:44;;;;;;;16.40;6.38;;;18.40;91.90;;;;;;5055727;28;20028;-81
2023/10/02 03:41:11;;;;;;;17.88;6.13;;;18.40;92.00;;;;;;5056484;28;20025;-81
2023/10/02 03:43:43;;;;;;;16.23;6.65;;;18.30;92.00;;;;;;5055357;28;20028;-81
2023/10/02 03:46:15;;;;;;;16.77;6.82;;;18.40;92.10;;;;;;5073265;28;20024;-81
2023/10/02 03:48:50;;;;;;;16.08;5.78;;;18.40;92.10;;;;;;5056357;28;20092;-80
2023/10/02 03:51:35;;;;;;;16.50;6.55;;;18.40;92.00;;;;;;5056751;28;20017;-80
2023/10/02 03:54:17;;;;;;;15.88;6.38;;;18.30;92.10;;;;;;5073057;28;20033;-80
2023/10/02 03:56:49;;;;;;;16.55;6.10;;;18.30;92.10;;;;;;5072935;28;20021;-80
2023/10/02 03:59:25;;;;;;;;;;;18.30;92.00;;;;;;5073428;28;20025;-81
2023/10/02 04:01:51;;;;;;;19.92;6.90;;;18.30;91.90;;;;;;5055477;28;19909;-80
2023/10/02 04:06:43;;;;;;;20.85;6.75;;;18.20;92.10;;;;;;5072896;28;20037;-80
2023/10/02 04:11:48;;;;;;;15.45;6.32;;;18.10;92.50;;;;;;5072906;28;20040;-80
2023/10/02 04:14:17;;;;;;;18.98;6.45;;;18.10;92.60;;;;;;5072979;28;20040;-80
2023/10/02 04:16:59;;;;;;;19.13;6.53;;;18.10;92.60;;;;;;5038835;28;20167;-80
2023/10/02 04:19:26;;;;;;;15.80;6.07;;;18.10;92.80;;;;;;5072826;28;20025;-81
2023/10/02 04:21:56;;;;;;;17.00;6.20;;;18.00;92.70;;;;;;5055416;28;20037;-80
2023/10/02 04:24:26;;;;;;;14.88;6.22;;;18.10;92.70;;;;;;5055189;28;20029;-81
2023/10/02 04:26:54;;;;;;;17.35;6.63;;;18.10;92.70;;;;;;5072830;28;20025;-81
2023/10/02 04:32:10;;;;;;;19.92;6.82;;;18.10;92.50;;;;;;5055014;28;20098;-80
2023/10/02 04:34:36;;;;;;;14.90;6.38;;;18.10;92.60;;;;;;5072425;28;20040;-80
2023/10/02 04:37:19;;;;;;;21.67;6.28;;;18.10;92.70;;;;;;5072516;28;20032;-80
2023/10/02 04:42:25;;;;;;;16.75;6.45;;;18.10;92.70;;;;;;5072590;28;20033;-81
2023/10/02 04:45:10;;;;;;;16.58;6.10;;;18.00;92.70;;;;;;5055514;28;20032;-81
2023/10/02 04:47:40;;;;;;;18.67;7.07;;;18.00;92.70;;;;;;5054932;28;20051;-80
2023/10/02 04:52:57;;;;;;;18.25;6.40;;;18.00;92.70;;;;;;5072581;28;20439;-81
2023/10/02 04:55:25;;;;;;;17.30;6.40;;;17.90;92.70;;;;;;5073875;28;20080;-81
2023/10/02 04:57:56;;;;;;;18.83;7.00;;;17.90;92.90;;;;;;5075974;28;20025;-81
2023/10/02 05:00:32;;;;;;;17.75;7.35;;;17.80;92.90;;;;;;5058319;28;20028;-80
2023/10/02 05:03:17;;;;;;;16.60;6.55;;;17.80;93.00;;;;;;5042763;28;20024;-80
2023/10/02 05:05:49;;;;;;;21.88;6.95;;;17.70;93.00;;;;;;5075726;28;20064;-80
2023/10/02 05:08:20;;;;;;;16.58;6.40;;;17.60;93.20;;;;;;5075829;28;20025;-81
2023/10/02 05:10:49;;;;;;;16.90;6.65;;;17.60;93.30;;;;;;5059165;28;20059;-81
2023/10/02 05:13:53;;;;;;;18.55;7.07;;;17.60;93.30;;;;;;5058040;28;20021;-81
2023/10/02 05:16:12;;;;;;;17.75;6.55;;;17.70;93.20;;;;;;5075482;28;20092;-80
2023/10/02 05:18:44;;;;;;;18.75;6.63;;;17.70;93.20;;;;;;5058066;28;20040;-80
2023/10/02 05:21:10;;;;;;;15.68;6.43;;;17.80;93.20;;;;;;5075820;28;20048;-80
2023/10/02 05:23:36;;;;;;;15.80;6.38;;;17.80;93.10;;;;;;5075512;28;20085;-81
2023/10/02 05:26:02;;;;;;;18.02;6.78;;;17.90;93.00;;;;;;5075377;28;20048;-80
2023/10/02 05:28:42;;;;;;;18.23;7.18;;;17.90;92.80;;;;;;5075378;28;20025;-80
2023/10/02 05:31:15;;;;;;;19.23;6.57;;;18.00;92.70;;;;;;5060090;28;20029;-80
2023/10/02 05:33:40;;;;;;;16.90;6.90;;;18.00;92.60;;;;;;5075423;28;20028;-79
2023/10/02 05:36:10;;;;;;;16.52;6.40;;;18.00;92.60;;;;;;5057838;28;20025;-79
2023/10/02 05:38:38;;;;;;;16.85;6.40;;;18.00;92.50;;;;;;5057469;28;20093;-79
2023/10/02 05:41:12;;;;;;;17.27;6.15;;;18.00;92.40;;;;;;5075186;28;20112;-79
2023/10/02 05:43:55;;;;;;;15.60;6.07;;;18.00;92.30;;;;;;5075347;28;20025;-79
2023/10/02 05:46:22;;;;;;;19.17;6.28;;;17.90;92.40;;;;;;5075153;28;20029;-79
2023/10/02 05:49:00;;;;;;;18.00;6.45;;;17.90;92.40;;;;;;5075166;28;20017;-79
2023/10/02 05:51:45;;;;;;;16.70;6.40;;;17.90;92.40;;;;;;5057377;28;20024;-81
2023/10/02 05:54:10;;;;;;;16.70;5.90;;;17.90;92.40;;;;;;5075009;28;20036;-80
2023/10/02 05:56:36;;;;;;;17.27;6.80;;;17.90;92.40;;;;;;5040571;28;20045;-80
2023/10/02 05:59:02;;;;;;;17.90;6.40;;;17.90;92.40;;;;;;5074824;28;20017;-80
2023/10/02 06:01:34;;;;;;;16.42;6.68;;;17.90;92.30;;;;;;5057306;28;20028;-80
2023/10/02 06:04:04;;;;;;;20.73;7.20;;;17.90;92.30;;;;;;5057242;28;20029;-80
2023/10/02 06:06:37;;;;;;;18.20;7.03;;;17.90;92.20;;;;;;5040008;28;20056;-80
2023/10/02 06:09:03;;;;;;;18.45;6.82;;;17.90;92.20;;;;;;5057173;28;20104;-80
2023/10/02 06:11:33;;;;;;;19.90;7.05;;;17.90;92.20;;;;;;5057153;28;20025;-80
2023/10/02 06:14:09;;;;;;;26.35;7.97;;;17.90;92.20;;;;;;5074701;28;20060;-80
2023/10/02 06:16:46;;;;;;;19.42;8.18;;;17.90;92.20;;;;;;5074552;28;20036;-81
2023/10/02 06:19:15;;;;;;;20.55;7.72;;;17.80;92.40;;;;;;5074515;28;20017;-80
2023/10/02 06:21:45;;;;;;;19.55;7.47;;;17.80;92.60;;;;;;5057271;28;20029;-81
2023/10/02 06:24:18;;;;;;;23.40;7.28;;;17.70;92.70;;;;;;5074414;28;20028;-81
2023/10/02 06:26:55;;;;;;;16.90;7.93;;;17.70;92.90;;;;;;5056746;28;20036;-80
2023/10/02 06:29:24;;;;;;;18.05;6.95;;;17.70;93.00;;;;;;5056715;28;20037;-80
2023/10/02 06:31:58;;;;;;;20.05;8.18;;;17.70;93.30;;;;;;5057070;28;20051;-81
2023/10/02 06:34:39;;;;;;;20.08;7.43;;;17.60;93.60;;;;;;5056414;28;20432;-80
2023/10/02 06:37:11;;;;;;;16.55;7.60;;;17.60;93.70;;;;;;5074134;28;20464;-80
2023/10/02 06:39:38;;;;;;;;;;;17.60;93.70;;;;;;5056913;28;20033;-80
2023/10/02 06:42:05;;;;;;;18.08;7.75;;;17.60;93.80;;;;;;5073960;28;19916;-80
2023/10/02 06:45:15;;;;;;;20.60;9.35;;;17.60;93.80;;;;;;5056262;28;20025;-81
2023/10/02 06:47:29;;;;;;;21.50;8.95;;;17.70;93.90;;;;;;5068076;28;20033;-80
2023/10/02 06:50:23;;;;;;;20.42;8.70;;;17.70;93.90;;;;;;5056077;28;20021;-81
2023/10/02 06:52:49;;;;;;;23.30;9.00;;;17.70;93.90;;;;;;5073931;28;20049;-81
2023/10/02 06:55:17;;;;;;;23.92;8.88;;;17.80;94.00;;;;;;5073826;28;20047;-80
2023/10/02 06:57:49;;;;;;;22.98;8.65;;;17.80;94.00;;;;;;5055955;28;20025;-80
2023/10/02 07:00:19;;;;;;;20.75;8.75;;;17.80;94.00;;;;;;5056036;28;20043;-80
2023/10/02 07:02:56;;;;;;;21.95;8.60;;;17.80;94.10;;;;;;5039731;28;20028;-81
2023/10/02 07:05:32;;;;;;;22.58;8.85;;;17.90;94.10;;;;;;5055795;28;20037;-81
2023/10/02 07:08:17;;;;;;;22.02;9.05;;;17.90;94.00;;;;;;5040378;28;20036;-81
2023/10/02 07:10:47;;;;;;;27.55;9.30;;;18.00;94.30;;;;;;5041305;28;20037;-80
2023/10/02 07:13:22;;;;;;;24.27;9.73;;;18.00;93.90;;;;;;5056660;28;20024;-81
2023/10/02 07:15:55;;;;;;;23.17;9.02;;;18.10;93.90;;;;;;5040699;28;20045;-81
2023/10/02 07:18:35;;;;;;;23.90;9.18;;;18.20;93.90;;;;;;5073015;28;20097;-80
2023/10/02 07:21:01;;;;;;;21.63;8.75;;;18.20;93.90;;;;;;5055883;28;20025;-80
2023/10/02 07:23:30;;;;;;;23.25;9.77;;;18.20;93.90;;;;;;5055939;28;20021;-80
2023/10/02 07:25:55;;;;;;;23.73;10.27;;;18.20;93.90;;;;;;5073291;28;20032;-80
2023/10/02 07:28:21;;;;;;;21.30;9.63;;;18.20;93.90;;;;;;5055689;28;20080;-80
2023/10/02 07:30:51;;;;;;;25.10;10.50;;;18.30;94.00;;;;;;5055724;28;20496;-80
2023/10/02 07:33:18;;;;;;;26.55;10.50;;;18.30;93.90;;;;;;5055617;28;20025;-81
2023/10/02 07:35:52;;;;;;;27.63;11.10;;;18.40;93.80;;;;;;5073145;28;20075;-80
2023/10/02 07:38:30;;;;;;;23.60;10.70;;;18.40;93.90;;;;;;5055498;28;20044;-81
2023/10/02 07:40:58;;;;;;;26.02;11.38;;;18.50;94.10;;;;;;5073308;28;20021;-81
2023/10/02 07:43:24;;;;;;;25.65;11.10;;;18.50;93.90;;;;;;5056005;28;20052;-81
2023/10/02 07:46:02;;;;;;;28.30;10.98;;;18.50;93.90;;;;;;5073095;28;20018;-81
2023/10/02 07:48:33;;;;;;;22.27;10.35;;;18.60;94.00;;;;;;5073312;28;20032;-81
2023/10/02 07:51:00;;;;;;;25.58;9.93;;;18.70;93.90;;;;;;5073040;28;20047;-81
2023/10/02 07:53:38;;;;;;;26.75;11.55;;;18.70;93.80;;;;;;5055724;28;20029;-81
2023/10/02 07:56:23;;;;;;;25.40;10.35;;;18.80;93.80;;;;;;5073019;28;20021;-81
2023/10/02 07:58:55;;;;;;;28.80;10.73;;;18.90;93.80;;;;;;5073044;28;20056;-81
2023/10/02 08:01:23;;;;;;;27.38;11.30;;;18.90;93.60;;;;;;5039718;28;20035;-81
2023/10/02 08:03:49;;;;;;;25.02;10.57;;;19.00;93.60;;;;;;5039104;28;20017;-81
2023/10/02 08:06:23;;;;;;;27.90;10.63;;;19.10;94.20;;;;;;5072701;28;20104;-80
2023/10/02 08:11:39;;;;;;;24.38;9.52;;;19.10;93.50;;;;;;5073119;28;20036;-81
2023/10/02 08:14:06;;;;;;;25.60;10.45;;;19.20;93.50;;;;;;5055483;28;20021;-80
2023/10/02 08:16:58;;;;;;;27.20;10.60;;;19.20;93.50;;;;;;5055034;28;20056;-80
2023/10/02 08:19:20;;;;;;;26.85;10.23;;;19.20;93.40;;;;;;5072621;28;20512;-80
2023/10/02 08:21:46;;;;;;;26.58;11.07;;;19.30;93.40;;;;;;5055633;28;20021;-80
2023/10/02 08:24:13;;;;;;;23.27;10.95;;;19.30;93.50;;;;;;5055172;28;20027;-80
2023/10/02 08:26:43;;;;;;;26.38;10.82;;;19.30;93.40;;;;;;5054955;28;20029;-82
2023/10/02 08:29:18;;;;;;;30.58;10.38;;;19.40;93.40;;;;;;5072673;28;20059;-81
2023/10/02 08:31:48;;;;;;;25.73;11.35;;;19.40;93.30;;;;;;5058775;28;20040;-81
2023/10/02 08:34:24;;;;;;;30.25;11.13;;;19.40;93.40;;;;;;5076415;28;20040;-81
2023/10/02 08:37:12;;;;;;;26.55;10.50;;;19.50;93.50;;;;;;5076424;28;20017;-81
2023/10/02 08:39:39;;;;;;;22.95;10.15;;;19.60;93.40;;;;;;5061515;28;20048;-81
2023/10/02 08:42:13;;;;;;;26.02;11.02;;;19.60;93.20;;;;;;5076286;28;20021;-81
2023/10/02 08:44:43;;;;;;;28.42;10.20;;;19.70;93.20;;;;;;5058767;28;20067;-81
2023/10/02 08:47:24;;;;;;;23.77;10.60;;;19.80;93.30;;;;;;5058597;28;20025;-81
2023/10/02 08:50:03;;;;;;;26.30;10.82;;;19.90;93.30;;;;;;5060631;28;20036;-81
2023/10/02 08:52:38;;;;;;;28.10;9.43;;;20.00;93.20;;;;;;5076213;28;20025;-81
2023/10/02 08:58:15;;;;;;;22.50;9.55;;;20.20;92.00;;;;;;5031891;28;20041;-82
2023/10/02 09:03:46;;;;;;;20.65;8.50;;;20.40;92.80;;;;;;5076051;28;20127;-81
2023/10/02 09:06:27;;;;;;;22.02;7.88;;;20.40;92.40;;;;;;5075813;28;20076;-81
2023/10/02 09:11:52;;;;;;;20.05;7.97;;;20.60;92.40;;;;;;5021700;28;20034;-81
2023/10/02 09:16:47;;;;;;;23.15;8.60;;;20.80;91.90;;;;;;5058263;28;20029;-81
2023/10/02 09:19:31;;;;;;;19.35;7.63;;;20.80;91.80;;;;;;5058015;28;20021;-81
2023/10/02 09:22:07;;;;;;;21.23;8.50;;;20.80;92.10;;;;;;5057829;28;20032;-80
2023/10/02 09:24:40;;;;;;;21.67;8.93;;;20.80;92.00;;;;;;5075497;28;20480;-81
2023/10/02 09:27:23;;;;;;;21.83;8.60;;;20.90;92.00;;;;;;5075546;28;20021;-81
2023/10/02 09:32:52;;;;;;;20.95;8.57;;;20.90;92.10;;;;;;5075539;28;20378;-81
2023/10/02 09:36:05;;;;;;;20.85;8.57;;;20.80;91.90;;;;;;5042741;28;20468;-81
2023/10/02 09:38:13;;;;;;;22.55;8.45;;;20.80;92.00;;;;;;5069461;28;20037;-81
2023/10/02 09:43:31;;;;;;;21.50;8.85;;;20.90;92.10;;;;;;5075453;28;20032;-81
2023/10/02 09:46:15;;;;;;;24.05;9.57;;;20.90;92.00;;;;;;5075143;28;20085;-81
2023/10/02 09:49:04;;;;;;;20.85;8.95;;;20.90;92.20;;;;;;5075144;28;20122;-81
2023/10/02 09:52:09;;;;;;;23.00;9.27;;;20.90;92.20;;;;;;5075157;28;20025;-81
2023/10/02 09:54:41;;;;;;;21.90;8.77;;;20.80;92.30;;;;;;5074755;28;20025;-81
2023/10/02 09:57:15;;;;;;;21.95;9.10;;;20.80;92.40;;;;;;5074837;28;20028;-80
2023/10/02 09:59:47;;;;;;;19.25;8.68;;;20.90;92.50;;;;;;5057147;28;20025;-81
2023/10/02 10:03:00;;;;;;;24.45;9.02;;;21.00;92.50;;;;;;5057084;28;20029;-80
2023/10/02 10:08:17;;;;;;;26.50;10.00;;;21.20;92.30;;;;;;5074840;28;20045;-80
2023/10/02 10:10:52;;;;;;;24.38;10.02;;;21.50;92.30;;;;;;5074424;28;20037;-81
2023/10/02 10:13:24;;;;;;;25.58;9.95;;;21.50;91.70;;;;;;5057720;28;20025;-81
2023/10/02 10:15:51;;;;;;;27.73;11.15;;;21.50;91.80;;;;;;5056848;28;20106;-81
2023/10/02 10:18:17;;;;;;;24.33;10.40;;;21.50;91.70;;;;;;5056844;28;20029;-81
2023/10/02 10:20:44;;;;;;;25.38;10.27;;;21.50;91.50;;;;;;5056701;28;20527;-80
2023/10/02 10:23:34;;;;;;;24.00;10.10;;;21.50;91.70;;;;;;5057075;28;20025;-81
2023/10/02 10:26:07;;;;;;;27.02;10.00;;;21.60;91.80;;;;;;5041617;28;20484;-81
2023/10/02 10:28:50;;;;;;;23.92;9.85;;;21.60;91.30;;;;;;5056815;28;20021;-80
2023/10/02 10:31:29;;;;;;;20.52;8.73;;;21.80;91.50;;;;;;5074344;28;20060;-81
2023/10/02 10:33:56;;;;;;;25.42;9.77;;;21.80;91.20;;;;;;5074167;28;20048;-81
2023/10/02 10:36:36;;;;;;;24.00;9.52;;;21.90;91.40;;;;;;5056713;28;20017;-80
2023/10/02 10:39:30;;;;;;;25.33;10.50;;;22.00;91.10;;;;;;5074017;28;20092;-81
2023/10/02 10:41:57;;;;;;;29.42;10.57;;;22.00;91.40;;;;;;5073853;28;20021;-81
2023/10/02 10:44:34;;;;;;;21.88;9.32;;;22.10;91.10;;;;;;5057906;28;20025;-81
2023/10/02 10:47:03;;;;;;;23.90;10.32;;;22.00;90.90;;;;;;5074122;28;20084;-80
2023/10/02 10:49:53;;;;;;;24.23;9.50;;;22.00;90.80;;;;;;5073974;28;20025;-83
2023/10/02 10:52:44;;;;;;;23.90;10.40;;;22.00;90.70;;;;;;5055774;28;20013;-83
2023/10/02 10:55:32;;;;;;;22.63;10.50;;;22.00;91.20;;;;;;5073899;28;20029;-84
2023/10/02 10:57:58;;;;;;;26.45;10.95;;;22.00;91.00;;;;;;5073773;28;20085;-83
2023/10/02 11:00:23;;;;;;;24.27;9.93;;;22.00;91.20;;;;;;5073646;28;20021;-84
2023/10/02 11:02:57;;;;;;;23.00;9.40;;;22.00;91.20;;;;;;5056213;28;20029;-83
2023/10/02 11:05:23;;;;;;;30.15;10.70;;;22.10;91.10;;;;;;5039518;28;20041;-82
2023/10/02 11:07:49;;;;;;;26.63;10.45;;;22.20;91.10;;;;;;5073646;28;20088;-82
2023/10/02 11:10:23;;;;;;;27.33;11.02;;;22.20;90.70;;;;;;5073479;28;20067;-82
2023/10/02 11:13:00;;;;;;;25.40;11.48;;;22.20;90.90;;;;;;5057165;28;20089;-82
2023/10/02 11:15:46;;;;;;;27.75;11.35;;;22.20;90.90;;;;;;5055821;28;20025;-83
2023/10/02 11:18:18;;;;;;;26.73;10.93;;;22.30;90.60;;;;;;5055781;28;20056;-84
2023/10/02 11:20:51;;;;;;;24.27;9.73;;;22.30;91.20;;;;;;5073488;28;20017;-84
2023/10/02 11:23:43;;;;;;;22.98;10.18;;;22.20;90.90;;;;;;5073464;28;20438;-82
2023/10/02 11:26:21;;;;;;;26.05;10.88;;;22.20;90.90;;;;;;5073356;28;20491;-83
2023/10/02 11:28:50;;;;;;;26.00;10.55;;;22.20;90.90;;;;;;5040810;28;20025;-82
2023/10/02 11:31:29;;;;;;;27.30;10.52;;;22.20;90.90;;;;;;5039607;28;20032;-82
2023/10/02 11:34:13;;;;;;;28.17;10.05;;;22.20;91.00;;;;;;5055542;28;20025;-82
2023/10/02 11:36:47;;;;;;;23.05;10.02;;;22.20;91.00;;;;;;5039159;28;20033;-82
2023/10/02 11:39:19;;;;;;;25.33;10.07;;;22.20;91.20;;;;;;5056742;28;20044;-82
2023/10/02 11:41:46;;;;;;;24.55;10.10;;;22.30;90.80;;;;;;5056485;28;20031;-82
2023/10/02 11:44:12;;;;;;;26.20;9.63;;;22.30;91.20;;;;;;5073208;28;20054;-83
2023/10/02 11:46:40;;;;;;;21.15;9.15;;;22.40;91.20;;;;;;5055463;28;20045;-83
2023/10/02 11:49:07;;;;;;;19.30;8.07;;;22.50;91.10;;;;;;5055776;28;20060;-81
2023/10/02 11:51:33;;;;;;;24.83;9.40;;;22.50;91.20;;;;;;5039021;28;20033;-81
2023/10/02 11:53:59;;;;;;;25.80;9.60;;;22.60;91.40;;;;;;5055404;28;20032;-81
2023/10/02 11:56:28;;;;;;;23.27;9.15;;;22.70;91.20;;;;;;5072883;28;20029;-81
2023/10/02 11:58:56;;;;;;;23.42;9.68;;;22.80;90.80;;;;;;5072984;28;20044;-83
2023/10/02 12:01:23;;;;;;;24.85;8.93;;;22.80;90.80;;;;;;5072956;28;20026;-82
2023/10/02 12:03:49;;;;;;;21.40;8.70;;;22.90;90.90;;;;;;5055951;28;20017;-81
2023/10/02 12:06:18;;;;;;;19.08;8.15;;;23.00;90.70;;;;;;5059252;28;20045;-82
2023/10/02 12:08:44;;;;;;;22.42;8.15;;;23.10;90.70;;;;;;5076922;28;20091;-82
2023/10/02 12:11:15;;;;;;;22.88;8.40;;;23.20;90.60;;;;;;5076969;28;20024;-82
2023/10/02 12:13:44;;;;;;;24.53;8.77;;;23.30;90.40;;;;;;5076925;28;20059;-82
2023/10/02 12:16:13;;;;;;;22.67;8.43;;;23.40;90.30;;;;;;5076872;28;20392;-82
2023/10/02 12:18:41;;;;;;;20.95;8.50;;;23.40;90.00;;;;;;5076786;28;20080;-82
2023/10/02 12:21:11;;;;;;;17.95;7.50;;;23.50;90.00;;;;;;5059412;28;20025;-82
2023/10/02 12:23:43;;;;;;;21.33;8.10;;;23.50;89.50;;;;;;5059023;28;20021;-82
2023/10/02 12:26:20;;;;;;;18.80;8.20;;;23.50;89.60;;;;;;5076745;28;20017;-83
2023/10/02 12:28:47;;;;;;;19.75;8.25;;;23.60;90.10;;;;;;5076614;28;20028;-83
2023/10/02 12:31:17;;;;;;;21.60;8.10;;;23.70;90.20;;;;;;5076588;28;20036;-81
2023/10/02 12:33:49;;;;;;;18.33;7.68;;;23.70;90.40;;;;;;5058717;28;20032;-82
2023/10/02 12:36:17;;;;;;;20.13;7.73;;;23.70;90.50;;;;;;5076446;28;20021;-81
2023/10/02 12:38:44;;;;;;;17.45;7.20;;;23.70;90.50;;;;;;5058711;28;20303;-82
2023/10/02 12:41:30;;;;;;;18.45;7.80;;;23.70;90.00;;;;;;5076367;28;20031;-82
2023/10/02 12:43:56;;;;;;;19.70;8.60;;;23.80;89.80;;;;;;5076194;28;20041;-82
2023/10/02 12:46:27;;;;;;;19.35;7.82;;;23.70;89.40;;;;;;5076299;28;20021;-82
2023/10/02 12:48:57;;;;;;;17.40;8.00;;;23.80;90.10;;;;;;5076085;28;20021;-81
2023/10/02 12:51:27;;;;;;;19.02;7.45;;;23.80;89.50;;;;;;5058871;28;20017;-82
2023/10/02 12:53:53;;;;;;;21.27;8.50;;;23.90;89.50;;;;;;5042613;28;20024;-81
2023/10/02 12:56:21;;;;;;;19.45;8.30;;;23.90;89.70;;;;;;5058715;28;20025;-81
2023/10/02 12:58:50;;;;;;;28.70;9.98;;;23.90;88.40;;;;;;5058396;28;20088;-82
2023/10/02 13:01:17;;;;;;;22.10;8.10;;;24.00;89.30;;;;;;5058341;28;20051;-80
2023/10/02 13:03:43;;;;;;;21.25;7.97;;;24.00;88.80;;;;;;5075965;28;20021;-80
2023/10/02 13:06:12;;;;;;;22.73;8.93;;;24.00;88.60;;;;;;5075823;28;20056;-81
2023/10/02 13:08:42;;;;;;;20.02;8.57;;;24.10;88.40;;;;;;5075928;28;20021;-81
2023/10/02 13:11:13;;;;;;;20.95;8.48;;;24.10;88.70;;;;;;5058161;28;20047;-81
2023/10/02 13:13:46;;;;;;;22.65;9.27;;;24.10;89.40;;;;;;5075797;28;20029;-81
2023/10/02 13:16:19;;;;;;;24.05;8.80;;;24.10;88.30;;;;;;5057757;28;20049;-81
2023/10/02 13:18:46;;;;;;;24.13;10.20;;;24.10;88.90;;;;;;5058031;28;20029;-81
2023/10/02 13:21:18;;;;;;;22.55;9.20;;;24.10;89.80;;;;;;5058163;28;20051;-81
2023/10/02 13:23:44;;;;;;;21.42;8.57;;;24.20;88.40;;;;;;5057866;28;20029;-81
2023/10/02 13:26:10;;;;;;;19.83;7.97;;;24.10;87.50;;;;;;5057993;28;20047;-81
2023/10/02 13:28:37;;;;;;;20.88;8.18;;;24.10;87.30;;;;;;5057790;28;20044;-81
2023/10/02 13:31:13;;;;;;;20.15;8.55;;;24.10;87.40;;;;;;5075377;28;20080;-81
2023/10/02 13:33:52;;;;;;;21.77;8.63;;;24.10;86.60;;;;;;5075114;28;20108;-81
2023/10/02 13:36:22;;;;;;;23.15;9.60;;;24.10;87.00;;;;;;5075417;28;20036;-81
2023/10/02 13:38:58;;;;;;;20.70;8.38;;;24.30;87.40;;;;;;5057947;28;20025;-81
2023/10/02 13:41:25;;;;;;;20.45;8.25;;;24.30;86.60;;;;;;5058551;28;20021;-81
2023/10/02 13:43:53;;;;;;;22.27;8.70;;;24.40;86.90;;;;;;5075246;28;20031;-81
2023/10/02 13:46:22;;;;;;;22.33;8.73;;;24.40;87.10;;;;;;5057515;28;20036;-81
2023/10/02 13:48:52;;;;;;;22.05;9.13;;;24.50;86.80;;;;;;5041241;28;20036;-81
2023/10/02 13:51:19;;;;;;;21.02;9.13;;;24.50;85.80;;;;;;5041435;28;20056;-81